Time;durP1;ratioP1;P1;durP2;ratioP2;P2;SDS_P1;SDS_P2;PMS_P1;PMS_P2;Temp;Humidity;BMP_temperature;BMP_pressure;BME280_temperature;BME280_humidity;BME280_pressure;Samples;Min_cycle;Max_cycle;Signal;HPM_P1;HPM_P2
2021/10/08 00:01:50;;;;;;;2.9;2.2;;;;;;;;;;;;;
2021/10/08 00:04:15;;;;;;;3.2;2.2;;;;;;;;;;;;;
2021/10/08 00:06:40;;;;;;;2.4;2.2;;;;;;;;;;;;;
2021/10/08 00:09:07;;;;;;;3.1;2.3;;;;;;;;;;;;;
2021/10/08 00:11:32;;;;;;;3.2;2;;;;;;;;;;;;;
2021/10/08 00:13:57;;;;;;;3.6;2;;;;;;;;;;;;;
2021/10/08 00:16:22;;;;;;;2.3;2;;;;;;;;;;;;;
2021/10/08 00:18:47;;;;;;;2;1.6;;;;;;;;;;;;;
2021/10/08 00:21:13;;;;;;;2.5;1.5;;;;;;;;;;;;;
2021/10/08 00:23:38;;;;;;;2.5;1.8;;;;;;;;;;;;;
2021/10/08 00:26:03;;;;;;;2.5;2;;;;;;;;;;;;;
2021/10/08 00:28:28;;;;;;;2.1;1.6;;;;;;;;;;;;;
2021/10/08 00:30:53;;;;;;;1.7;1.6;;;;;;;;;;;;;
2021/10/08 00:33:18;;;;;;;2.6;1.7;;;;;;;;;;;;;
2021/10/08 00:35:43;;;;;;;2;1.8;;;;;;;;;;;;;
2021/10/08 00:38:09;;;;;;;2.8;1.8;;;;;;;;;;;;;
2021/10/08 00:40:34;;;;;;;3.6;2.1;;;;;;;;;;;;;
2021/10/08 00:42:59;;;;;;;3;1.8;;;;;;;;;;;;;
2021/10/08 00:45:24;;;;;;;2.1;1.9;;;;;;;;;;;;;
2021/10/08 00:47:50;;;;;;;2.4;1.8;;;;;;;;;;;;;
2021/10/08 00:50:15;;;;;;;2.1;1.9;;;;;;;;;;;;;
2021/10/08 00:52:40;;;;;;;3.2;2.1;;;;;;;;;;;;;
2021/10/08 00:55:05;;;;;;;3.7;2.3;;;;;;;;;;;;;
2021/10/08 00:57:30;;;;;;;3.1;2.1;;;;;;;;;;;;;
2021/10/08 00:59:55;;;;;;;2.6;2.1;;;;;;;;;;;;;
2021/10/08 01:02:20;;;;;;;2.8;2.2;;;;;;;;;;;;;
2021/10/08 01:04:48;;;;;;;3.5;2.4;;;;;;;;;;;;;
2021/10/08 01:07:11;;;;;;;3.2;1.9;;;;;;;;;;;;;
2021/10/08 01:09:36;;;;;;;2.2;2;;;;;;;;;;;;;
2021/10/08 01:12:01;;;;;;;2.1;1.8;;;;;;;;;;;;;
2021/10/08 01:14:26;;;;;;;2.5;2.3;;;;;;;;;;;;;
2021/10/08 01:16:51;;;;;;;3.8;2.2;;;;;;;;;;;;;
2021/10/08 01:19:25;;;;;;;2.4;2.2;;;;;;;;;;;;;
2021/10/08 01:21:50;;;;;;;3.9;2.8;;;;;;;;;;;;;
2021/10/08 01:24:15;;;;;;;5.3;3;;;;;;;;;;;;;
2021/10/08 01:26:40;;;;;;;3.5;3.2;;;;;;;;;;;;;
2021/10/08 01:29:05;;;;;;;3.8;3.3;;;;;;;;;;;;;
2021/10/08 01:31:30;;;;;;;3.9;3.6;;;;;;;;;;;;;
2021/10/08 01:33:55;;;;;;;3.6;3.1;;;;;;;;;;;;;
2021/10/08 01:36:20;;;;;;;4.4;3.1;;;;;;;;;;;;;
2021/10/08 01:38:46;;;;;;;3.5;3.2;;;;;;;;;;;;;
2021/10/08 01:41:11;;;;;;;5.4;3.9;;;;;;;;;;;;;
2021/10/08 01:43:36;;;;;;;4.6;3.8;;;;;;;;;;;;;
2021/10/08 01:46:02;;;;;;;5.2;3.7;;;;;;;;;;;;;
2021/10/08 01:48:27;;;;;;;5.1;3.5;;;;;;;;;;;;;
2021/10/08 01:50:52;;;;;;;5.1;3.8;;;;;;;;;;;;;
2021/10/08 01:53:17;;;;;;;4.4;3.3;;;;;;;;;;;;;
2021/10/08 01:55:42;;;;;;;5.4;4;;;;;;;;;;;;;
2021/10/08 01:58:22;;;;;;;4.3;3.6;;;;;;;;;;;;;
2021/10/08 02:00:47;;;;;;;4.2;3.3;;;;;;;;;;;;;
2021/10/08 02:03:12;;;;;;;3.7;3.2;;;;;;;;;;;;;
2021/10/08 02:05:37;;;;;;;3.5;3.2;;;;;;;;;;;;;
2021/10/08 02:08:02;;;;;;;4;3.6;;;;;;;;;;;;;
2021/10/08 02:10:28;;;;;;;3.8;3.4;;;;;;;;;;;;;
2021/10/08 02:12:53;;;;;;;4.9;3.9;;;;;;;;;;;;;
2021/10/08 02:15:18;;;;;;;4.2;3.8;;;;;;;;;;;;;
2021/10/08 02:17:43;;;;;;;5.8;3.8;;;;;;;;;;;;;
2021/10/08 02:20:08;;;;;;;4.8;4.3;;;;;;;;;;;;;
2021/10/08 02:22:33;;;;;;;4.3;3.9;;;;;;;;;;;;;
2021/10/08 02:24:58;;;;;;;4.1;3.7;;;;;;;;;;;;;
2021/10/08 02:27:24;;;;;;;5.9;4;;;;;;;;;;;;;
2021/10/08 02:29:49;;;;;;;4.4;4;;;;;;;;;;;;;
2021/10/08 02:32:14;;;;;;;4.4;4;;;;;;;;;;;;;
2021/10/08 02:34:40;;;;;;;4.3;3.7;;;;;;;;;;;;;
2021/10/08 02:37:05;;;;;;;5.7;4.1;;;;;;;;;;;;;
2021/10/08 02:39:30;;;;;;;5.7;3.8;;;;;;;;;;;;;
2021/10/08 02:41:55;;;;;;;5;3.3;;;;;;;;;;;;;
2021/10/08 02:44:20;;;;;;;4.9;3.7;;;;;;;;;;;;;
2021/10/08 02:46:46;;;;;;;4.3;3.7;;;;;;;;;;;;;
2021/10/08 02:49:11;;;;;;;4.4;3.1;;;;;;;;;;;;;
2021/10/08 02:51:36;;;;;;;4;3.2;;;;;;;;;;;;;
2021/10/08 02:54:01;;;;;;;5.3;3.5;;;;;;;;;;;;;
2021/10/08 02:56:26;;;;;;;3.7;3.3;;;;;;;;;;;;;
2021/10/08 02:58:52;;;;;;;4.7;3.5;;;;;;;;;;;;;
2021/10/08 03:01:17;;;;;;;4.7;3.4;;;;;;;;;;;;;
2021/10/08 03:03:43;;;;;;;4;3.5;;;;;;;;;;;;;
2021/10/08 03:06:08;;;;;;;3.3;2.8;;;;;;;;;;;;;
2021/10/08 03:08:33;;;;;;;3.6;3.3;;;;;;;;;;;;;
2021/10/08 03:10:58;;;;;;;3.6;3.1;;;;;;;;;;;;;
2021/10/08 03:13:23;;;;;;;4.1;3.4;;;;;;;;;;;;;
2021/10/08 03:15:49;;;;;;;4.4;3.1;;;;;;;;;;;;;
2021/10/08 03:18:14;;;;;;;4.7;3.2;;;;;;;;;;;;;
2021/10/08 03:20:39;;;;;;;4;3.3;;;;;;;;;;;;;
2021/10/08 03:23:04;;;;;;;3.2;2.9;;;;;;;;;;;;;
2021/10/08 03:25:29;;;;;;;4.3;3;;;;;;;;;;;;;
2021/10/08 03:27:55;;;;;;;7.3;3.2;;;;;;;;;;;;;
2021/10/08 03:30:20;;;;;;;3.7;3;;;;;;;;;;;;;
2021/10/08 03:32:45;;;;;;;4;3.1;;;;;;;;;;;;;
2021/10/08 03:35:10;;;;;;;4.3;3.5;;;;;;;;;;;;;
2021/10/08 03:37:40;;;;;;;5.5;3.6;;;;;;;;;;;;;
2021/10/08 03:40:00;;;;;;;4.5;3.4;;;;;;;;;;;;;
2021/10/08 03:42:26;;;;;;;3.9;3;;;;;;;;;;;;;
2021/10/08 03:44:56;;;;;;;5.2;3.2;;;;;;;;;;;;;
2021/10/08 03:47:21;;;;;;;3.6;3.1;;;;;;;;;;;;;
2021/10/08 03:49:41;;;;;;;4.7;3.4;;;;;;;;;;;;;
2021/10/08 03:52:06;;;;;;;4.9;3;;;;;;;;;;;;;
2021/10/08 03:54:31;;;;;;;3.7;3;;;;;;;;;;;;;
2021/10/08 03:56:56;;;;;;;4.7;3;;;;;;;;;;;;;
2021/10/08 03:59:21;;;;;;;4.2;3.3;;;;;;;;;;;;;
2021/10/08 04:02:31;;;;;;;4.2;3.4;;;;;;;9.74;93.09863;946.0695;;;;
2021/10/08 04:04:56;;;;;;;7.1;3.8;;;;;;;9.74;92.66602;946.0378;;;;
2021/10/08 04:07:22;;;;;;;6.1;3.9;;;;;;;9.73;92.6543;946.0582;;;;
2021/10/08 04:09:47;;;;;;;4.3;3.6;;;;;;;9.8;92.63184;946.0733;;;;
2021/10/08 04:12:14;;;;;;;6.3;4.2;;;;;;;9.77;92.72852;946.0184;;;;
2021/10/08 04:14:39;;;;;;;4.4;3.7;;;;;;;9.73;93.04004;946.0621;;;;
2021/10/08 04:17:06;;;;;;;5.7;3.8;;;;;;;9.75;92.81738;946.0603;;;;
2021/10/08 04:19:32;;;;;;;3.8;3.4;;;;;;;9.75;92.84961;946.0284;;;;
2021/10/08 04:21:56;;;;;;;5.8;3.8;;;;;;;9.71;93.01074;945.9136;;;;
2021/10/08 04:24:21;;;;;;;4.4;3.4;;;;;;;9.68;92.76563;945.9988;;;;
2021/10/08 04:26:46;;;;;;;4.4;3.3;;;;;;;9.63;93.08496;945.9942;;;;
2021/10/08 04:29:12;;;;;;;4.8;3.3;;;;;;;9.62;93.30078;945.9489;;;;
2021/10/08 04:31:37;;;;;;;3.8;3.4;;;;;;;9.62;93.4043;945.9925;;;;
2021/10/08 04:34:02;;;;;;;5;3.4;;;;;;;9.63;93.27832;946.0436;;;;
2021/10/08 04:36:28;;;;;;;4;3.5;;;;;;;9.62;93.01465;946.0353;;;;
2021/10/08 04:38:54;;;;;;;3.9;3.5;;;;;;;9.64;92.90625;946.0256;;;;
2021/10/08 04:41:20;;;;;;;6.1;3.9;;;;;;;9.61;92.54688;946.0849;;;;
2021/10/08 04:43:45;;;;;;;5.6;4.1;;;;;;;9.63;92.14063;946.0595;;;;
2021/10/08 04:46:10;;;;;;;5.7;4.1;;;;;;;9.58;92.35938;946.0136;;;;
2021/10/08 04:48:37;;;;;;;6.1;4.3;;;;;;;9.53;92.53027;946.075;;;;
2021/10/08 04:51:02;;;;;;;5.4;3.9;;;;;;;9.47;92.69824;946.068;;;;
2021/10/08 04:53:46;;;;;;;6;4;;;;;;;9.56;92.71973;946.0258;;;;
2021/10/08 04:56:12;;;;;;;5.6;4.5;;;;;;;9.58;92.74512;946.0571;;;;
2021/10/08 04:58:37;;;;;;;4.7;3.6;;;;;;;9.66;92.51367;946.1049;;;;
2021/10/08 05:01:02;;;;;;;5.6;3.7;;;;;;;9.65;92.31543;946.0641;;;;
2021/10/08 05:03:29;;;;;;;4.7;3.5;;;;;;;9.63;92.02734;946.0222;;;;
2021/10/08 05:05:55;;;;;;;5.5;3.7;;;;;;;9.55;92.26953;946.015;;;;
2021/10/08 05:08:21;;;;;;;4.6;3.9;;;;;;;9.53;92.68945;946.0233;;;;
2021/10/08 05:10:46;;;;;;;6.1;3.8;;;;;;;9.52;92.65332;946.0128;;;;
2021/10/08 05:13:11;;;;;;;4.2;3.4;;;;;;;9.5;92.92285;946.0679;;;;
2021/10/08 05:15:36;;;;;;;5.6;3.9;;;;;;;9.53;92.96289;946.0583;;;;
2021/10/08 05:18:03;;;;;;;3.4;3.1;;;;;;;9.5;92.61328;945.978;;;;
2021/10/08 05:20:28;;;;;;;3.9;3.4;;;;;;;9.45;93.17285;945.995;;;;
2021/10/08 05:22:53;;;;;;;4.8;3.5;;;;;;;9.44;93.62695;946.075;;;;
2021/10/08 05:25:20;;;;;;;4.5;3.7;;;;;;;9.44;93.77441;946.1083;;;;
2021/10/08 05:27:45;;;;;;;4.5;3.8;;;;;;;9.4;94.07422;946.0603;;;;
2021/10/08 05:30:12;;;;;;;6.6;4.1;;;;;;;9.45;94.00488;946.0691;;;;
2021/10/08 05:32:37;;;;;;;5;4.3;;;;;;;9.53;93.66699;946.0797;;;;
2021/10/08 05:35:02;;;;;;;5.6;4.7;;;;;;;9.53;93.43945;946.086;;;;
2021/10/08 05:37:27;;;;;;;6.4;5;;;;;;;9.54;93.46582;946.0815;;;;
2021/10/08 05:40:16;;;;;;;5.1;4.6;;;;;;;9.54;93.59082;946.088;;;;
2021/10/08 05:42:42;;;;;;;6.1;4.8;;;;;;;9.6;93.89941;946.1078;;;;
2021/10/08 05:45:07;;;;;;;6.5;5.2;;;;;;;9.68;93.75977;946.146;;;;
2021/10/08 05:47:32;;;;;;;5.2;4.6;;;;;;;9.77;93.11621;946.0662;;;;
2021/10/08 05:49:57;;;;;;;5.4;4.3;;;;;;;9.75;92.88379;946.0776;;;;
2021/10/08 05:52:22;;;;;;;6;4;;;;;;;9.83;92.64844;946.1992;;;;
2021/10/08 05:54:47;;;;;;;6.4;4.1;;;;;;;9.88;92.50293;946.1863;;;;
2021/10/08 05:57:12;;;;;;;4.8;3.8;;;;;;;9.88;92.2959;946.1925;;;;
2021/10/08 05:59:39;;;;;;;8.7;4.2;;;;;;;9.84;91.85449;946.2011;;;;
2021/10/08 06:02:03;;;;;;;5.4;4.2;;;;;;;9.78;92.4248;946.22;;;;
2021/10/08 06:04:30;;;;;;;6.3;4.4;;;;;;;9.76;92.44336;946.1536;;;;
2021/10/08 06:06:55;;;;;;;4.4;4;;;;;;;9.79;92.71191;946.218;;;;
2021/10/08 06:09:21;;;;;;;6.8;4.9;;;;;;;9.85;92.3584;946.1649;;;;
2021/10/08 06:11:46;;;;;;;6;4.5;;;;;;;10;91.45605;946.0895;;;;
2021/10/08 06:14:12;;;;;;;5.2;4.7;;;;;;;9.93;92.30762;946.0864;;;;
2021/10/08 06:16:37;;;;;;;6.3;5;;;;;;;9.97;92.29395;946.046;;;;
2021/10/08 06:19:03;;;;;;;8.8;6.2;;;;;;;10.07;92.11035;946.0313;;;;
2021/10/08 06:21:28;;;;;;;7.8;5.9;;;;;;;10.18;91.62891;946.0233;;;;
2021/10/08 06:23:53;;;;;;;10.2;5.8;;;;;;;10.3;91.14258;946.0815;;;;
2021/10/08 06:26:18;;;;;;;7.6;5.6;;;;;;;10.37;90.30176;946.1573;;;;
2021/10/08 06:28:43;;;;;;;5.9;5.2;;;;;;;10.46;89.89844;946.2026;;;;
2021/10/08 06:31:09;;;;;;;8.5;5.2;;;;;;;10.52;89.17871;946.1474;;;;
2021/10/08 06:33:34;;;;;;;6.3;4.8;;;;;;;10.59;88.26855;946.0963;;;;
2021/10/08 06:36:00;;;;;;;6.7;4.7;;;;;;;10.56;87.9668;946.0598;;;;
2021/10/08 06:38:25;;;;;;;5.2;4.3;;;;;;;10.58;88.04004;946.1138;;;;
2021/10/08 06:40:52;;;;;;;4;3.1;;;;;;;10.53;87.18262;946.1252;;;;
2021/10/08 06:43:17;;;;;;;4.7;3.6;;;;;;;10.51;86.79102;946.1177;;;;
2021/10/08 06:45:43;;;;;;;7.1;4.4;;;;;;;10.38;87.07324;946.1113;;;;
2021/10/08 06:48:08;;;;;;;5.5;3.8;;;;;;;10.32;87.31348;946.1483;;;;
2021/10/08 06:50:33;;;;;;;4.7;3.8;;;;;;;10.4;88.19629;946.1588;;;;
2021/10/08 06:52:58;;;;;;;4.4;3.9;;;;;;;10.51;87.63574;946.2291;;;;
2021/10/08 06:55:24;;;;;;;4.8;4;;;;;;;10.63;86.89648;946.2967;;;;
2021/10/08 06:57:49;;;;;;;4.4;3.9;;;;;;;10.66;86.77637;946.3237;;;;
2021/10/08 07:00:16;;;;;;;5.7;4.3;;;;;;;10.66;87.08398;946.3268;;;;
2021/10/08 07:02:41;;;;;;;6.5;4.4;;;;;;;10.78;87.49609;946.3094;;;;
2021/10/08 07:05:13;;;;;;;6.2;4.4;;;;;;;10.91;86.96387;946.3372;;;;
2021/10/08 07:07:38;;;;;;;6.2;4.4;;;;;;;11.02;86.28809;946.3805;;;;
2021/10/08 07:10:03;;;;;;;5;4.4;;;;;;;11.06;85.42871;946.3638;;;;
2021/10/08 07:12:29;;;;;;;6.4;4.2;;;;;;;11.13;83.96777;946.351;;;;
2021/10/08 07:14:53;;;;;;;5.3;3.9;;;;;;;11.18;83.56543;946.2985;;;;
2021/10/08 07:17:18;;;;;;;4.8;4;;;;;;;11.29;82.38477;946.3455;;;;
2021/10/08 07:19:44;;;;;;;5;4;;;;;;;11.3;82.88965;946.3114;;;;
2021/10/08 07:22:09;;;;;;;6;4.2;;;;;;;11.35;82.48828;946.33;;;;
2021/10/08 07:24:35;;;;;;;5.1;4.2;;;;;;;11.39;82.16211;946.3027;;;;
2021/10/08 07:27:00;;;;;;;5.6;4;;;;;;;11.04;82.87402;946.3314;;;;
2021/10/08 07:29:25;;;;;;;7.3;4.5;;;;;;;10.7;85.05859;946.2918;;;;
2021/10/08 07:31:51;;;;;;;6.7;5;;;;;;;10.63;86.02832;946.2617;;;;
2021/10/08 07:34:16;;;;;;;7.7;5.2;;;;;;;10.84;85.80664;946.2281;;;;
2021/10/08 07:36:42;;;;;;;7.3;5.2;;;;;;;11.26;83.92383;946.2366;;;;
2021/10/08 07:39:07;;;;;;;7.1;4.8;;;;;;;11.34;82.3252;946.3017;;;;
2021/10/08 07:41:33;;;;;;;6.1;4.8;;;;;;;11.3;83.06152;946.3401;;;;
2021/10/08 07:43:58;;;;;;;7.4;5.1;;;;;;;11.67;81.54102;946.3189;;;;
2021/10/08 07:46:26;;;;;;;6.2;4.7;;;;;;;11.67;80.85645;946.3365;;;;
2021/10/08 07:48:50;;;;;;;6;5;;;;;;;11.87;81.89941;946.3383;;;;
2021/10/08 07:51:16;;;;;;;6.6;4.9;;;;;;;12.09;79.59277;946.2625;;;;
2021/10/08 07:53:41;;;;;;;5;4.3;;;;;;;12.14;78.66113;946.304;;;;
2021/10/08 07:56:07;;;;;;;4.5;4.1;;;;;;;12.23;77.72656;946.3441;;;;
2021/10/08 07:58:32;;;;;;;4.5;4.1;;;;;;;12.12;78.8418;946.2885;;;;
2021/10/08 08:00:57;;;;;;;4.4;4;;;;;;;12.23;79.18164;946.3727;;;;
2021/10/08 08:03:22;;;;;;;4.8;4;;;;;;;12.41;77.08008;946.2797;;;;
2021/10/08 08:05:48;;;;;;;5;4.1;;;;;;;12.5;76.5459;946.3309;;;;
2021/10/08 08:08:14;;;;;;;4.8;4.3;;;;;;;12.67;75.84375;946.3329;;;;
2021/10/08 08:10:39;;;;;;;5.2;4;;;;;;;12.79;75.56738;946.2915;;;;
2021/10/08 08:13:04;;;;;;;4.3;3.2;;;;;;;12.66;75.39258;946.2296;;;;
2021/10/08 08:15:30;;;;;;;3.4;3.1;;;;;;;12.71;74.55273;946.2951;;;;
2021/10/08 08:17:56;;;;;;;3.3;2.7;;;;;;;12.73;75.37109;946.3002;;;;
2021/10/08 08:20:21;;;;;;;3.9;3.2;;;;;;;12.74;74.95898;946.3155;;;;
2021/10/08 08:22:47;;;;;;;5.2;4.3;;;;;;;12.62;75.87988;946.2267;;;;
2021/10/08 08:25:12;;;;;;;6.6;4.4;;;;;;;12.55;77.03711;946.3405;;;;
2021/10/08 08:27:38;;;;;;;6.4;5;;;;;;;12.66;77.66504;946.2625;;;;
2021/10/08 08:32:31;;;;;;;7.7;4.9;;;;;;;12.33;79.07422;946.2506;;;;
2021/10/08 08:34:53;;;;;;;4.8;4.3;;;;;;;12.48;80.30664;946.3044;;;;
2021/10/08 08:37:18;;;;;;;4.2;3.7;;;;;;;12.16;79.78809;946.2731;;;;
2021/10/08 08:39:45;;;;;;;5.7;4.1;;;;;;;12.18;80.64063;946.2081;;;;
2021/10/08 08:42:09;;;;;;;5.5;4.2;;;;;;;11.97;81.48145;946.3175;;;;
2021/10/08 08:44:35;;;;;;;6;4.1;;;;;;;11.71;81.12598;946.3597;;;;
2021/10/08 08:47:01;;;;;;;3.9;3.5;;;;;;;11.67;82.77539;946.3372;;;;
2021/10/08 08:49:26;;;;;;;5.2;4.2;;;;;;;12.06;81.5459;946.2946;;;;
2021/10/08 08:51:52;;;;;;;4.9;3.3;;;;;;;12.15;81.00098;946.2609;;;;
2021/10/08 08:54:17;;;;;;;4.6;3.4;;;;;;;12.49;80.65234;946.2294;;;;
2021/10/08 08:56:43;;;;;;;2.6;2.4;;;;;;;12.5;79.21973;946.2039;;;;
2021/10/08 08:59:08;;;;;;;3.6;2.7;;;;;;;12.59;77.90625;946.0758;;;;
2021/10/08 09:01:33;;;;;;;3.8;3.4;;;;;;;12.93;77.83984;946.14;;;;
2021/10/08 09:04:00;;;;;;;4.6;2.9;;;;;;;13.08;77.30371;946.0839;;;;
2021/10/08 09:06:25;;;;;;;3;2.7;;;;;;;13.55;74.96191;946.0605;;;;
2021/10/08 09:08:50;;;;;;;4.1;2.9;;;;;;;13.86;75.72949;946.0739;;;;
2021/10/08 09:11:15;;;;;;;3.4;2.7;;;;;;;14.48;73.08203;946.0656;;;;
2021/10/08 09:13:40;;;;;;;3.5;2.6;;;;;;;14.61;72.50391;945.9599;;;;
2021/10/08 09:16:06;;;;;;;3.5;2.4;;;;;;;14.85;71.02246;946.0012;;;;
2021/10/08 09:18:31;;;;;;;2.5;2.2;;;;;;;15.03;69.59863;946.0095;;;;
2021/10/08 09:20:56;;;;;;;2.2;1.9;;;;;;;15.67;68.75293;945.9938;;;;
2021/10/08 09:23:21;;;;;;;2.2;1.9;;;;;;;15.78;68.03027;945.8967;;;;
2021/10/08 09:25:47;;;;;;;2.4;2.2;;;;;;;15.91;65.57813;945.8933;;;;
2021/10/08 09:28:12;;;;;;;2.2;1.9;;;;;;;15.91;65.3584;945.8579;;;;
2021/10/08 09:30:37;;;;;;;1.9;1.6;;;;;;;15.14;68.27832;945.8978;;;;
2021/10/08 09:33:03;;;;;;;1.8;1.7;;;;;;;15.18;69.74805;945.873;;;;
2021/10/08 09:35:28;;;;;;;1.8;1.7;;;;;;;14.95;68.97363;945.8998;;;;
2021/10/08 09:37:53;;;;;;;2.6;1.7;;;;;;;14.55;68.4834;945.905;;;;
2021/10/08 09:40:18;;;;;;;2;1.7;;;;;;;14.43;70.22949;945.8819;;;;
2021/10/08 09:42:43;;;;;;;1.5;1.4;;;;;;;14.8;72.60449;945.8675;;;;
2021/10/08 09:45:09;;;;;;;1.7;1.3;;;;;;;14.95;67.93457;945.8269;;;;
2021/10/08 09:47:34;;;;;;;2.1;1.3;;;;;;;14.58;70.19531;945.8731;;;;
2021/10/08 09:50:00;;;;;;;3.4;1.8;;;;;;;14.82;71.33984;945.8711;;;;
2021/10/08 09:52:25;;;;;;;2.5;2.1;;;;;;;14.97;70.28027;945.8591;;;;
2021/10/08 09:54:51;;;;;;;2.8;1.8;;;;;;;15.3;66.77734;945.7807;;;;
2021/10/08 09:57:15;;;;;;;2.3;2.1;;;;;;;14.83;70.32813;945.7717;;;;
2021/10/08 09:59:41;;;;;;;2.7;2.2;;;;;;;15.18;68.48047;945.6484;;;;
2021/10/08 10:02:06;;;;;;;10.9;2.9;;;;;;;15.17;68.58301;945.6885;;;;
2021/10/08 10:04:31;;;;;;;3.2;2.7;;;;;;;14.61;72.06641;945.6937;;;;
2021/10/08 10:06:56;;;;;;;3.3;2.8;;;;;;;14.69;70.98438;945.6985;;;;
2021/10/08 10:09:22;;;;;;;3.2;2.8;;;;;;;14.47;71.21484;945.6913;;;;
2021/10/08 10:11:47;;;;;;;4.1;2.5;;;;;;;14.53;71.8584;945.6219;;;;
2021/10/08 10:14:12;;;;;;;3.6;2.9;;;;;;;14.66;70.11621;945.6478;;;;
2021/10/08 10:16:37;;;;;;;4.3;3.2;;;;;;;14.21;72.41504;945.5966;;;;
2021/10/08 10:19:08;;;;;;;3.1;2.8;;;;;;;14.15;73.47656;945.6065;;;;
2021/10/08 10:21:36;;;;;;;2.6;2.3;;;;;;;14.56;71.98926;945.6358;;;;
2021/10/08 10:23:59;;;;;;;3.4;2.5;;;;;;;14.46;72.61816;945.644;;;;
2021/10/08 10:26:24;;;;;;;3.6;2.7;;;;;;;14.26;72.24023;945.6997;;;;
2021/10/08 10:28:49;;;;;;;3.4;2.7;;;;;;;14.61;71.35156;945.6456;;;;
2021/10/08 10:31:14;;;;;;;3.7;2.8;;;;;;;14.71;70.82813;945.717;;;;
2021/10/08 10:33:39;;;;;;;2.8;2.5;;;;;;;14.62;70.36328;945.7391;;;;
2021/10/08 10:36:06;;;;;;;2.6;2.4;;;;;;;14.14;74.84375;945.7009;;;;
2021/10/08 10:38:30;;;;;;;4.7;2.6;;;;;;;14.2;72.70117;945.7166;;;;
2021/10/08 10:40:55;;;;;;;2.9;2.6;;;;;;;14.51;72.36133;945.6683;;;;
2021/10/08 10:43:21;;;;;;;3.9;2.8;;;;;;;14.89;69.92285;945.7047;;;;
2021/10/08 10:45:49;;;;;;;3.3;2.7;;;;;;;15.28;69.70605;945.6691;;;;
2021/10/08 10:48:11;;;;;;;3.2;2.9;;;;;;;15.59;68.02539;945.5886;;;;
2021/10/08 10:50:48;;;;;;;4.1;2.9;;;;;;;15.76;66.82422;945.5587;;;;
2021/10/08 10:53:02;;;;;;;3.7;2.9;;;;;;;15.9;66.91699;945.58;;;;
2021/10/08 10:55:27;;;;;;;3.4;2.9;;;;;;;15;70.05566;945.5496;;;;
2021/10/08 10:57:54;;;;;;;4.1;2.9;;;;;;;15.54;68.46582;945.5786;;;;
2021/10/08 11:00:17;;;;;;;3;2.5;;;;;;;15.98;65.90039;945.5029;;;;
2021/10/08 11:02:43;;;;;;;4.2;2.8;;;;;;;16.38;65.66016;945.4944;;;;
2021/10/08 11:05:08;;;;;;;4.4;2.9;;;;;;;16.43;64.60156;945.4842;;;;
2021/10/08 11:07:33;;;;;;;4.4;3;;;;;;;16.48;63.34668;945.5275;;;;
2021/10/08 11:09:58;;;;;;;6.2;3.2;;;;;;;16.74;63.11914;945.4955;;;;
2021/10/08 11:12:23;;;;;;;3.5;3.1;;;;;;;16.17;66.74902;945.4758;;;;
2021/10/08 11:14:48;;;;;;;3.8;2.9;;;;;;;16.43;63.59473;945.4441;;;;
2021/10/08 11:17:13;;;;;;;4;2.7;;;;;;;17.02;63.12402;945.4267;;;;
2021/10/08 11:19:40;;;;;;;4.7;2.9;;;;;;;16.25;63.99707;945.5034;;;;
2021/10/08 11:22:04;;;;;;;3.4;3;;;;;;;16.51;64.5459;945.4053;;;;
2021/10/08 11:24:30;;;;;;;3.2;2.8;;;;;;;17.27;61.25684;945.327;;;;
2021/10/08 11:26:56;;;;;;;3.4;3.1;;;;;;;17.58;60.4209;945.3915;;;;
2021/10/08 11:29:23;;;;;;;3.4;2.7;;;;;;;17.35;60.63184;945.3596;;;;
2021/10/08 11:31:48;;;;;;;3.8;2.7;;;;;;;17.36;60.4707;945.4191;;;;
2021/10/08 11:34:15;;;;;;;3.9;3;;;;;;;17.9;58.22168;945.3025;;;;
2021/10/08 11:36:38;;;;;;;3.8;3.1;;;;;;;18.2;57.73926;945.356;;;;
2021/10/08 11:39:03;;;;;;;4.1;2.7;;;;;;;18.5;57.09375;945.3303;;;;
2021/10/08 11:41:28;;;;;;;3.9;2.9;;;;;;;18.75;56.08984;945.2615;;;;
2021/10/08 11:43:56;;;;;;;171.6;8.3;;;;;;;18.41;57.40625;945.2479;;;;
2021/10/08 11:46:55;;;;;;;4.3;3.2;;;;;;;19.05;56.36035;945.2142;;;;
2021/10/08 11:48:49;;;;;;;3.9;3;;;;;;;19.53;54.12598;945.1383;;;;
2021/10/08 11:51:10;;;;;;;3.8;2.6;;;;;;;18.86;55.23047;945.1436;;;;
2021/10/08 11:53:35;;;;;;;5.3;3;;;;;;;18.34;56.89844;945.0912;;;;
2021/10/08 11:56:00;;;;;;;3.2;2.9;;;;;;;18.14;57.49902;945.1155;;;;
2021/10/08 11:58:25;;;;;;;43.5;4.3;;;;;;;17.69;60.3877;945.0829;;;;
2021/10/08 12:00:50;;;;;;;4.6;3.4;;;;;;;18.52;58.31543;945.0907;;;;
2021/10/08 12:03:18;;;;;;;5.5;3.5;;;;;;;18.12;59.48438;945.0156;;;;
2021/10/08 12:05:42;;;;;;;119.7;6.8;;;;;;;18.22;58.56836;944.9352;;;;
2021/10/08 12:08:07;;;;;;;4.1;3;;;;;;;19.08;56.89941;944.962;;;;
2021/10/08 12:10:32;;;;;;;3.7;3.2;;;;;;;19.49;56.30078;944.9102;;;;
2021/10/08 12:12:57;;;;;;;290.4;11.7;;;;;;;19.86;53.71191;944.815;;;;
2021/10/08 12:15:22;;;;;;;3.2;2.6;;;;;;;20.17;52.60547;944.8758;;;;
2021/10/08 12:17:47;;;;;;;3.9;2.6;;;;;;;21.73;49.21875;944.8134;;;;
2021/10/08 12:20:12;;;;;;;4.7;3.2;;;;;;;21.38;50.22266;944.7615;;;;
2021/10/08 12:22:37;;;;;;;4.1;2.6;;;;;;;22.14;48.53809;944.7996;;;;
2021/10/08 12:25:03;;;;;;;8.5;3.1;;;;;;;22.26;47.6123;944.7903;;;;
2021/10/08 12:27:28;;;;;;;32.9;3.9;;;;;;;20.83;50.56836;944.6984;;;;
2021/10/08 12:29:54;;;;;;;3.3;2.5;;;;;;;21.84;48.02344;944.7488;;;;
2021/10/08 12:32:19;;;;;;;3.2;2.4;;;;;;;21.69;48.85059;944.747;;;;
2021/10/08 12:34:45;;;;;;;4.4;2.9;;;;;;;21.64;48.75195;944.7547;;;;
2021/10/08 12:37:10;;;;;;;3.3;2.6;;;;;;;22.42;47.98047;944.7734;;;;
2021/10/08 12:39:36;;;;;;;3.3;2.4;;;;;;;24.68;41.24512;944.6879;;;;
2021/10/08 12:42:02;;;;;;;4.1;2.8;;;;;;;25.28;40.0957;944.7023;;;;
2021/10/08 12:44:29;;;;;;;3.5;2.8;;;;;;;26.51;37.58984;944.6827;;;;
2021/10/08 12:46:52;;;;;;;4;3.2;;;;;;;26.29;37.93945;944.7166;;;;
2021/10/08 12:49:17;;;;;;;3.1;2.8;;;;;;;27.09;36.84473;944.6586;;;;
2021/10/08 12:51:43;;;;;;;6;3.5;;;;;;;27.74;34.95117;944.6833;;;;
2021/10/08 12:54:08;;;;;;;5.7;3.6;;;;;;;29.24;33.20898;944.5978;;;;
2021/10/08 12:56:33;;;;;;;116.1;22.9;;;;;;;29.18;32.24023;944.6108;;;;
2021/10/08 12:58:58;;;;;;;71.1;16.2;;;;;;;28.72;33.34863;944.5683;;;;
2021/10/08 13:01:23;;;;;;;171.9;28.8;;;;;;;29.2;32.70605;944.5266;;;;
2021/10/08 13:03:50;;;;;;;1999.9;262.2;;;;;;;26.51;37.99219;944.5806;;;;
2021/10/08 13:06:13;;;;;;;18.4;6.2;;;;;;;24.43;42.09375;944.5701;;;;
2021/10/08 13:08:41;;;;;;;39.7;8.7;;;;;;;24.27;42.10254;944.539;;;;
2021/10/08 13:11:04;;;;;;;37.7;8.8;;;;;;;23.4;43.51367;944.5315;;;;
2021/10/08 13:13:29;;;;;;;18.5;5.9;;;;;;;23.71;43.42578;944.5611;;;;
2021/10/08 13:15:54;;;;;;;103.6;13.4;;;;;;;24.41;42.25684;944.5239;;;;
2021/10/08 13:18:20;;;;;;;38.3;7.6;;;;;;;24.64;41.77246;944.563;;;;
2021/10/08 13:20:44;;;;;;;291.5;40.1;;;;;;;26.37;37.37695;944.5291;;;;
2021/10/08 13:23:09;;;;;;;213.3;33.9;;;;;;;26.51;37.43555;944.6077;;;;
2021/10/08 13:25:38;;;;;;;890.9;143.5;;;;;;;26.61;35.77539;944.5142;;;;
2021/10/08 13:28:01;;;;;;;1994.3;230.2;;;;;;;26.73;35.84375;944.5349;;;;
2021/10/08 13:30:27;;;;;;;1148;134.5;;;;;;;25.1;39.13574;944.6071;;;;
2021/10/08 13:32:52;;;;;;;117.1;20.5;;;;;;;25.01;39.23438;944.6016;;;;
2021/10/08 13:35:20;;;;;;;322.4;50.1;;;;;;;23.92;41.61035;944.6077;;;;
2021/10/08 13:37:44;;;;;;;70.5;13.7;;;;;;;24.71;39.34961;944.5679;;;;
2021/10/08 13:40:11;;;;;;;1521.6;222.7;;;;;;;25.23;38.94629;944.5109;;;;
2021/10/08 13:42:38;;;;;;;111.5;25.5;;;;;;;26.03;37.13574;944.5694;;;;
2021/10/08 13:45:03;;;;;;;349;63.4;;;;;;;26.2;36.83008;944.5673;;;;
2021/10/08 13:47:28;;;;;;;1289.2;204.7;;;;;;;24.21;40.09473;944.5723;;;;
2021/10/08 13:49:53;;;;;;;800.5;130.6;;;;;;;24.1;41.22656;944.6266;;;;
2021/10/08 13:52:18;;;;;;;1556.7;206.2;;;;;;;22.01;44.25684;944.6156;;;;
2021/10/08 13:54:45;;;;;;;373.8;48.9;;;;;;;22.7;43.21094;944.6188;;;;
2021/10/08 13:57:09;;;;;;;46.6;9.1;;;;;;;22.34;44.20801;944.5742;;;;
2021/10/08 13:59:34;;;;;;;265.7;30;;;;;;;23.42;41.93945;944.5895;;;;
2021/10/08 14:02:07;;;;;;;167.9;25.9;;;;;;;23.3;42.8916;944.5761;;;;
2021/10/08 14:04:29;;;;;;;185.4;25.3;;;;;;;23.28;42.0791;944.5734;;;;
2021/10/08 14:07:08;;;;;;;230.2;28.3;;;;;;;23.67;40.66992;944.5055;;;;
2021/10/08 14:10:15;;;;;;;22.5;6.1;;;;;;;23.54;40.41016;944.5366;;;;
2021/10/08 14:11:41;;;;;;;386;50.3;;;;;;;23.5;40.71289;944.55;;;;
2021/10/08 14:14:06;;;;;;;42.4;8.1;;;;;;;23.63;40.1709;944.5416;;;;
2021/10/08 14:16:33;;;;;;;6.4;4.5;;;;;;;23.2;41.24902;944.5641;;;;
2021/10/08 14:18:56;;;;;;;154.4;35.7;;;;;;;22.67;41.23535;944.5781;;;;
2021/10/08 14:21:22;;;;;;;590.6;61.9;;;;;;;21.87;43.39844;944.5995;;;;
2021/10/08 14:23:47;;;;;;;14.6;4.6;;;;;;;21.56;44.23535;944.5835;;;;
2021/10/08 14:26:13;;;;;;;4.9;4.1;;;;;;;21.67;44.07129;944.5602;;;;
2021/10/08 14:28:38;;;;;;;6.3;4.7;;;;;;;22.26;42.11133;944.5673;;;;
2021/10/08 14:31:05;;;;;;;5.4;4.3;;;;;;;21.88;42.62598;944.5734;;;;
2021/10/08 14:33:30;;;;;;;5.5;4.1;;;;;;;21.53;44.2334;944.5493;;;;
2021/10/08 14:35:55;;;;;;;5.8;4.2;;;;;;;21.51;43.75;944.5912;;;;
2021/10/08 14:38:21;;;;;;;5.9;4.5;;;;;;;21.49;44.19238;944.5261;;;;
2021/10/08 14:40:46;;;;;;;7;4.6;;;;;;;22.08;43.10254;944.5189;;;;
2021/10/08 14:43:11;;;;;;;6.1;4.7;;;;;;;22.1;43.21094;944.5411;;;;
2021/10/08 14:45:36;;;;;;;5;4.3;;;;;;;21.4;44.04395;944.5584;;;;
2021/10/08 14:48:01;;;;;;;5.7;4.5;;;;;;;21.47;43.59375;944.4964;;;;
2021/10/08 14:50:27;;;;;;;5.9;4.5;;;;;;;20.91;45.23438;944.5478;;;;
2021/10/08 14:52:51;;;;;;;6.9;4.6;;;;;;;20.23;46.41406;944.5265;;;;
2021/10/08 14:55:44;;;;;;;6.6;4.7;;;;;;;19.45;47.88184;944.5886;;;;
2021/10/08 14:58:00;;;;;;;7.2;4.8;;;;;;;18.8;50.05664;944.5864;;;;
2021/10/08 15:00:07;;;;;;;6.3;4.7;;;;;;;18.21;50.88574;944.5762;;;;
2021/10/08 15:02:32;;;;;;;6.4;5;;;;;;;17.5;52.73926;944.4941;;;;
2021/10/08 15:04:57;;;;;;;6.8;5.2;;;;;;;16.67;55.16504;944.4952;;;;
2021/10/08 15:07:25;;;;;;;7.8;5.3;;;;;;;16.73;54.75488;944.5086;;;;
2021/10/08 15:09:50;;;;;;;7.3;5.2;;;;;;;16.71;55.10156;944.5055;;;;
2021/10/08 15:12:15;;;;;;;7.6;5.5;;;;;;;16.21;56.86621;944.5291;;;;
2021/10/08 15:14:40;;;;;;;7.7;5.6;;;;;;;16.22;56.85449;944.538;;;;
2021/10/08 15:17:05;;;;;;;7.6;5.8;;;;;;;16.06;57.72461;944.5005;;;;
2021/10/08 15:19:31;;;;;;;6.9;5.4;;;;;;;15.93;57.38281;944.4932;;;;
2021/10/08 15:22:00;;;;;;;7;5.4;;;;;;;15.85;58.32129;944.4322;;;;
2021/10/08 15:24:25;;;;;;;7.2;5.3;;;;;;;15.67;58.94434;944.5108;;;;
2021/10/08 15:26:50;;;;;;;8.7;5.9;;;;;;;15.64;59.55273;944.4939;;;;
2021/10/08 15:29:15;;;;;;;7.8;5.9;;;;;;;15.66;59.89063;944.5011;;;;
2021/10/08 15:31:40;;;;;;;6.6;5.4;;;;;;;15.46;60.15234;944.4852;;;;